createdAt,value
2023-08-31T00:01:40.722Z,2.92
2023-08-31T00:04:07.920Z,3.03
2023-08-31T00:06:34.886Z,3.42
2023-08-31T00:09:01.921Z,4.00
2023-08-31T00:11:28.824Z,3.72
2023-08-31T00:13:58.282Z,3.60
2023-08-31T00:16:25.629Z,3.63
2023-08-31T00:18:52.553Z,3.72
2023-08-31T00:21:19.475Z,4.10
2023-08-31T00:23:46.457Z,3.35
2023-08-31T00:26:13.427Z,3.90
2023-08-31T00:28:40.346Z,4.20
2023-08-31T00:31:08.718Z,3.92
2023-08-31T00:33:35.829Z,4.28
2023-08-31T00:36:03.081Z,4.20
2023-08-31T00:38:30.335Z,4.35
2023-08-31T00:40:57.484Z,3.92
2023-08-31T00:43:24.609Z,4.60
2023-08-31T00:45:55.491Z,3.70
2023-08-31T00:48:23.797Z,4.15
2023-08-31T00:50:51.294Z,4.15
2023-08-31T00:53:19.181Z,3.80
2023-08-31T00:55:46.493Z,4.10
2023-08-31T00:58:13.441Z,4.00
2023-08-31T01:00:47.591Z,3.65
2023-08-31T01:03:21.126Z,4.07
2023-08-31T01:05:56.979Z,3.65
2023-08-31T01:08:33.112Z,3.58
2023-08-31T01:11:08.960Z,3.67
2023-08-31T01:13:37.450Z,3.25
2023-08-31T01:16:08.058Z,3.42
2023-08-31T01:18:36.532Z,3.47
2023-08-31T01:21:12.501Z,3.28
2023-08-31T01:23:51.684Z,3.40
2023-08-31T01:26:19.042Z,3.97
2023-08-31T01:28:46.286Z,3.55
2023-08-31T01:31:13.262Z,3.53
2023-08-31T01:33:40.238Z,4.20
2023-08-31T01:36:17.844Z,3.50
2023-08-31T01:38:49.871Z,3.25
2023-08-31T01:41:19.551Z,3.55
2023-08-31T01:43:49.266Z,3.50
2023-08-31T01:46:17.036Z,3.67
2023-08-31T01:48:44.036Z,3.65
2023-08-31T01:51:11.504Z,4.22
2023-08-31T01:53:38.811Z,3.67
2023-08-31T01:56:07.406Z,3.63
2023-08-31T01:58:34.328Z,4.43
2023-08-31T02:01:01.373Z,4.53
2023-08-31T02:03:28.395Z,4.32
2023-08-31T02:05:55.399Z,4.47
2023-08-31T02:08:22.342Z,4.28
2023-08-31T02:10:49.228Z,4.65
2023-08-31T02:13:17.519Z,4.50
2023-08-31T02:15:44.478Z,4.53
2023-08-31T02:18:11.529Z,4.55
2023-08-31T02:20:38.692Z,4.47
2023-08-31T02:23:05.689Z,4.10
2023-08-31T02:25:33.048Z,4.32
2023-08-31T02:27:59.969Z,4.30
2023-08-31T02:30:28.335Z,4.53
2023-08-31T02:32:55.570Z,3.78
2023-08-31T02:35:22.540Z,3.83
2023-08-31T02:37:49.464Z,4.05
2023-08-31T02:40:16.561Z,3.90
2023-08-31T02:42:43.471Z,4.15
2023-08-31T02:45:10.630Z,4.05
2023-08-31T02:47:39.024Z,3.85
2023-08-31T02:50:07.438Z,3.83
2023-08-31T02:52:34.349Z,4.00
2023-08-31T02:55:01.382Z,3.75
2023-08-31T02:57:28.260Z,3.70
2023-08-31T02:59:55.178Z,3.30
2023-08-31T03:02:22.180Z,4.03
2023-08-31T03:04:50.556Z,3.78
2023-08-31T03:07:17.491Z,3.22
2023-08-31T03:09:44.409Z,4.03
2023-08-31T03:12:11.359Z,3.58
2023-08-31T03:14:38.249Z,3.42
2023-08-31T03:17:05.329Z,3.53
2023-08-31T03:19:32.216Z,3.85
2023-08-31T03:22:00.513Z,4.05
2023-08-31T03:24:28.209Z,3.90
2023-08-31T03:26:55.164Z,3.83
2023-08-31T03:29:22.068Z,3.60
2023-08-31T03:31:49.006Z,3.47
2023-08-31T03:34:15.923Z,3.22
2023-08-31T03:36:42.856Z,3.53
2023-08-31T03:39:11.158Z,3.63
2023-08-31T03:41:38.109Z,3.63
2023-08-31T03:44:05.325Z,3.05
2023-08-31T03:46:32.326Z,4.03
2023-08-31T03:48:59.245Z,3.53
2023-08-31T03:51:26.274Z,3.85
2023-08-31T03:53:53.161Z,3.88
2023-08-31T03:56:21.437Z,3.80
2023-08-31T03:58:48.324Z,4.10
2023-08-31T04:01:15.275Z,3.28
2023-08-31T04:03:43.545Z,3.97
2023-08-31T04:06:10.560Z,3.85
2023-08-31T04:08:37.514Z,3.13
2023-08-31T04:11:04.589Z,4.10
2023-08-31T04:13:32.865Z,3.58
2023-08-31T04:15:59.871Z,3.55
2023-08-31T04:18:26.876Z,3.78
2023-08-31T04:20:55.780Z,3.85
2023-08-31T04:23:22.798Z,3.80
2023-08-31T04:25:49.839Z,3.58
2023-08-31T04:28:16.877Z,3.38
2023-08-31T04:30:45.216Z,3.90
2023-08-31T04:33:12.535Z,3.80
2023-08-31T04:35:39.711Z,3.92
2023-08-31T04:38:06.628Z,4.10
2023-08-31T04:40:33.520Z,3.95
2023-08-31T04:43:00.494Z,4.50
2023-08-31T04:45:27.458Z,4.75
2023-08-31T04:47:55.756Z,4.55
2023-08-31T04:50:22.706Z,4.50
2023-08-31T04:52:49.600Z,4.70
2023-08-31T04:55:16.654Z,4.43
2023-08-31T04:57:43.558Z,4.38
2023-08-31T05:00:11.221Z,4.45
2023-08-31T05:02:38.199Z,5.88
2023-08-31T05:05:07.523Z,5.50
2023-08-31T05:07:34.427Z,5.10
2023-08-31T05:10:01.470Z,5.05
2023-08-31T05:12:28.372Z,4.88
2023-08-31T05:14:55.323Z,5.22
2023-08-31T05:17:22.878Z,5.50
2023-08-31T05:19:49.776Z,4.95
2023-08-31T05:22:18.063Z,5.00
2023-08-31T05:24:44.979Z,5.32
2023-08-31T05:27:11.896Z,5.22
2023-08-31T05:29:38.784Z,5.38
2023-08-31T05:32:06.295Z,4.97
2023-08-31T05:34:33.631Z,5.95
2023-08-31T05:37:00.579Z,5.70
2023-08-31T05:39:28.834Z,4.60
2023-08-31T05:41:55.803Z,5.15
2023-08-31T05:44:23.556Z,5.57
2023-08-31T05:46:50.463Z,4.72
2023-08-31T05:49:17.338Z,5.25
2023-08-31T05:51:44.260Z,5.15
2023-08-31T05:54:11.169Z,5.00
2023-08-31T05:56:39.496Z,4.40
2023-08-31T05:59:06.752Z,4.90
2023-08-31T06:01:33.814Z,4.47
2023-08-31T06:04:00.726Z,4.70
2023-08-31T06:06:27.733Z,4.55
2023-08-31T06:08:54.674Z,4.68
2023-08-31T06:11:21.839Z,4.57
2023-08-31T06:13:50.124Z,4.90
2023-08-31T06:16:17.097Z,4.70
2023-08-31T06:18:44.038Z,5.25
2023-08-31T06:21:10.944Z,4.75
2023-08-31T06:23:37.898Z,4.57
2023-08-31T06:26:45.449Z,5.13
2023-08-31T06:29:16.365Z,5.13
2023-08-31T06:31:43.333Z,4.50
2023-08-31T06:34:10.266Z,5.55
2023-08-31T06:36:37.140Z,4.43
2023-08-31T06:39:04.217Z,4.40
2023-08-31T06:41:31.169Z,5.50
2023-08-31T06:43:58.121Z,4.82
2023-08-31T06:46:26.579Z,4.75
2023-08-31T06:48:53.581Z,4.32
2023-08-31T06:51:22.179Z,4.50
2023-08-31T06:53:50.879Z,4.32
2023-08-31T06:56:17.793Z,3.65
2023-08-31T06:58:44.869Z,4.03
2023-08-31T07:01:15.109Z,3.78
2023-08-31T07:03:43.483Z,4.63
2023-08-31T07:06:10.587Z,3.85
2023-08-31T07:08:37.565Z,4.32
2023-08-31T07:11:04.467Z,3.08
2023-08-31T07:13:31.531Z,3.97
2023-08-31T07:15:58.528Z,3.35
2023-08-31T07:18:25.593Z,3.45
2023-08-31T07:20:53.972Z,3.63
2023-08-31T07:23:21.215Z,4.35
2023-08-31T07:25:48.127Z,3.72
2023-08-31T07:28:15.075Z,3.55
2023-08-31T07:30:42.108Z,3.30
2023-08-31T07:33:28.266Z,4.05
2023-08-31T07:35:58.626Z,4.18
2023-08-31T07:38:25.835Z,3.50
2023-08-31T07:40:53.417Z,3.40
2023-08-31T07:43:20.501Z,4.03
2023-08-31T07:45:47.579Z,4.45
2023-08-31T07:48:14.613Z,3.60
2023-08-31T07:50:41.853Z,4.45
2023-08-31T07:53:10.430Z,4.72
2023-08-31T07:55:37.585Z,4.72
2023-08-31T07:58:04.866Z,4.65
2023-08-31T08:00:31.896Z,4.70
2023-08-31T08:02:58.917Z,4.18
2023-08-31T08:05:26.048Z,4.32
2023-08-31T08:07:52.967Z,4.13
2023-08-31T08:10:21.354Z,4.88
2023-08-31T08:12:48.305Z,4.55
2023-08-31T08:15:15.575Z,4.78
2023-08-31T08:17:42.537Z,4.20
2023-08-31T08:20:10.469Z,4.68
2023-08-31T08:22:37.524Z,4.35
2023-08-31T08:25:05.187Z,3.95
2023-08-31T08:27:33.725Z,4.47
2023-08-31T08:30:00.871Z,3.60
2023-08-31T08:32:28.025Z,4.22
2023-08-31T08:34:54.954Z,4.22
2023-08-31T08:37:21.872Z,4.80
2023-08-31T08:39:50.609Z,5.47
2023-08-31T08:42:19.450Z,4.18
2023-08-31T08:44:48.230Z,4.10
2023-08-31T08:47:16.491Z,4.63
2023-08-31T08:49:44.264Z,4.72
2023-08-31T08:52:11.693Z,5.25
2023-08-31T08:54:40.451Z,7.82
2023-08-31T08:57:07.709Z,4.53
2023-08-31T08:59:34.827Z,4.28
2023-08-31T09:02:03.989Z,4.43
2023-08-31T09:29:57.172Z,3.80
2023-08-31T09:32:24.219Z,4.22
2023-08-31T09:34:59.431Z,3.88
2023-08-31T09:37:33.505Z,11.20
2023-08-31T09:40:03.625Z,4.60
2023-08-31T09:42:38.087Z,4.47
2023-08-31T09:45:07.794Z,4.00
2023-08-31T09:47:35.626Z,4.90
2023-08-31T09:50:03.893Z,5.20
2023-08-31T09:52:31.128Z,3.78
2023-08-31T09:54:59.388Z,3.65
2023-08-31T09:57:43.900Z,4.03
2023-08-31T10:00:15.634Z,4.70
2023-08-31T10:02:43.445Z,4.97
2023-08-31T10:05:11.779Z,3.85
2023-08-31T10:07:39.357Z,3.08
2023-08-31T10:10:08.505Z,3.55
2023-08-31T10:12:36.955Z,3.65
2023-08-31T10:15:05.842Z,3.20
2023-08-31T10:17:34.640Z,3.50
2023-08-31T10:20:01.847Z,3.65
2023-08-31T10:22:28.977Z,2.97
2023-08-31T10:24:59.203Z,2.80
2023-08-31T10:27:26.378Z,2.83
2023-08-31T10:29:53.781Z,2.97
2023-08-31T10:32:21.102Z,3.40
2023-08-31T10:35:08.319Z,3.10
2023-08-31T10:37:35.572Z,6.07
2023-08-31T10:40:09.507Z,2.55
2023-08-31T10:42:43.502Z,3.30
2023-08-31T10:45:11.148Z,3.50
2023-08-31T10:47:39.470Z,2.67
2023-08-31T10:50:22.818Z,2.63
2023-08-31T10:52:49.933Z,2.47
2023-08-31T10:55:16.972Z,4.38
2023-08-31T10:57:44.132Z,2.38
2023-08-31T11:00:11.816Z,2.22
2023-08-31T11:02:39.789Z,2.20
2023-08-31T11:05:11.027Z,2.40
2023-08-31T11:07:40.035Z,2.40
2023-08-31T11:10:12.344Z,2.53
2023-08-31T11:12:39.683Z,2.90
2023-08-31T11:15:07.875Z,2.80
2023-08-31T11:17:35.549Z,2.60
2023-08-31T11:20:03.453Z,2.83
2023-08-31T11:22:30.456Z,3.78
2023-08-31T11:24:59.658Z,2.85
2023-08-31T11:27:26.848Z,2.70
2023-08-31T11:29:53.767Z,3.05
2023-08-31T11:32:23.868Z,4.43
2023-08-31T11:34:51.751Z,4.28
2023-08-31T11:37:20.189Z,2.80
2023-08-31T11:39:51.427Z,2.50
2023-08-31T11:42:21.624Z,2.50
2023-08-31T11:44:50.797Z,3.33
2023-08-31T11:47:18.306Z,2.65
2023-08-31T11:49:46.787Z,2.92
2023-08-31T11:52:14.495Z,2.50
2023-08-31T11:54:42.561Z,2.75
2023-08-31T11:57:10.494Z,3.35
2023-08-31T11:59:40.651Z,5.13
2023-08-31T12:02:08.462Z,2.35
2023-08-31T12:04:43.085Z,2.70
2023-08-31T12:07:10.078Z,2.55
2023-08-31T12:09:37.661Z,2.45
2023-08-31T12:12:05.314Z,2.13
2023-08-31T12:14:32.270Z,5.05
2023-08-31T12:17:05.040Z,2.35
2023-08-31T12:19:32.603Z,4.25
2023-08-31T12:22:00.050Z,2.20
2023-08-31T12:24:27.357Z,1.80
2023-08-31T12:26:54.447Z,1.92
2023-08-31T12:29:21.636Z,2.58
2023-08-31T12:31:48.766Z,2.20
2023-08-31T12:34:17.187Z,2.80
2023-08-31T12:36:44.262Z,2.20
2023-08-31T12:39:11.422Z,7.25
2023-08-31T12:41:38.504Z,2.90
2023-08-31T12:44:06.228Z,2.42
2023-08-31T12:46:33.645Z,2.08
2023-08-31T12:49:01.209Z,2.30
2023-08-31T12:51:30.333Z,3.28
2023-08-31T12:53:57.336Z,2.17
2023-08-31T12:56:24.379Z,2.20
2023-08-31T12:58:52.185Z,2.70
2023-08-31T13:01:19.887Z,2.60
2023-08-31T13:03:47.189Z,3.58
2023-08-31T13:06:14.333Z,2.65
2023-08-31T13:08:42.819Z,2.50
2023-08-31T13:11:10.642Z,3.22
2023-08-31T13:13:37.688Z,2.88
2023-08-31T13:16:05.125Z,2.35
2023-08-31T13:18:32.051Z,2.88
2023-08-31T13:20:59.110Z,2.70
2023-08-31T13:23:26.309Z,2.50
2023-08-31T13:25:54.702Z,3.10
2023-08-31T13:28:21.735Z,2.75
2023-08-31T13:30:48.812Z,2.95
2023-08-31T13:33:16.127Z,2.80
2023-08-31T13:35:43.300Z,3.17
2023-08-31T13:38:10.404Z,2.90
2023-08-31T13:40:37.556Z,2.47
2023-08-31T13:43:06.103Z,3.45
2023-08-31T13:45:33.762Z,6.63
2023-08-31T13:48:01.494Z,7.55
2023-08-31T13:50:29.130Z,4.97
2023-08-31T13:52:56.214Z,2.80
2023-08-31T13:55:23.574Z,3.13
2023-08-31T13:57:50.705Z,2.90
2023-08-31T14:00:19.696Z,3.15
2023-08-31T14:02:46.750Z,2.58
2023-08-31T14:05:13.774Z,3.47
2023-08-31T14:07:40.733Z,3.25
2023-08-31T14:10:08.678Z,3.53
2023-08-31T14:12:35.903Z,3.85
2023-08-31T14:15:03.179Z,3.10
2023-08-31T14:17:31.806Z,3.28
2023-08-31T14:20:01.085Z,3.60
2023-08-31T14:22:28.172Z,3.25
2023-08-31T14:24:55.184Z,3.30
2023-08-31T14:27:22.350Z,3.20
2023-08-31T14:29:49.334Z,3.40
2023-08-31T14:32:16.293Z,3.47
2023-08-31T14:34:44.753Z,3.17
2023-08-31T14:37:11.794Z,3.97
2023-08-31T14:39:38.772Z,3.20
2023-08-31T14:42:05.937Z,3.97
2023-08-31T14:44:32.905Z,3.03
2023-08-31T14:46:59.892Z,3.40
2023-08-31T14:49:26.882Z,3.60
2023-08-31T14:51:55.494Z,3.55
2023-08-31T14:54:22.644Z,3.10
2023-08-31T14:56:49.592Z,3.78
2023-08-31T14:59:16.732Z,3.13
2023-08-31T15:01:43.684Z,3.00
2023-08-31T15:04:10.650Z,3.25
2023-08-31T15:06:37.604Z,2.85
2023-08-31T15:09:06.234Z,2.92
2023-08-31T15:11:33.733Z,3.38
2023-08-31T15:14:00.882Z,3.20
2023-08-31T15:16:28.093Z,3.00
2023-08-31T15:18:55.078Z,2.85
2023-08-31T15:21:22.118Z,3.28
2023-08-31T15:23:49.247Z,3.28
2023-08-31T15:26:17.624Z,3.03
2023-08-31T15:28:44.720Z,2.92
2023-08-31T15:31:13.677Z,3.28
2023-08-31T15:33:40.825Z,3.28
2023-08-31T15:36:09.607Z,3.38
2023-08-31T15:38:37.948Z,3.10
2023-08-31T15:41:06.543Z,2.92
2023-08-31T15:43:36.106Z,3.72
2023-08-31T15:46:04.195Z,3.20
2023-08-31T15:48:31.745Z,3.00
2023-08-31T15:51:00.516Z,3.00
2023-08-31T15:53:27.643Z,3.58
2023-08-31T15:55:54.717Z,3.60
2023-08-31T15:58:21.685Z,3.75
2023-08-31T16:00:50.021Z,3.75
2023-08-31T16:03:17.052Z,3.70
2023-08-31T16:05:44.070Z,4.45
2023-08-31T16:08:11.129Z,3.40
2023-08-31T16:10:38.289Z,3.67
2023-08-31T16:13:05.757Z,4.28
2023-08-31T16:15:33.808Z,4.10
2023-08-31T16:18:02.391Z,3.97
2023-08-31T16:20:29.546Z,4.00
2023-08-31T16:22:56.517Z,4.55
2023-08-31T16:25:23.517Z,4.53
2023-08-31T16:27:50.876Z,4.22
2023-08-31T16:30:17.861Z,4.32
2023-08-31T16:32:45.180Z,4.50
2023-08-31T16:35:14.744Z,4.13
2023-08-31T16:37:41.780Z,4.40
2023-08-31T16:40:10.204Z,4.65
2023-08-31T16:42:38.885Z,4.60
2023-08-31T16:45:07.206Z,4.65
2023-08-31T16:47:34.785Z,5.28
2023-08-31T16:50:02.363Z,4.20
2023-08-31T16:52:30.996Z,4.63
2023-08-31T16:54:57.935Z,4.43
2023-08-31T16:57:25.034Z,4.13
2023-08-31T16:59:52.015Z,4.38
2023-08-31T17:02:19.066Z,4.47
2023-08-31T17:04:46.056Z,4.57
2023-08-31T17:07:12.997Z,4.45
2023-08-31T17:09:41.918Z,4.32
2023-08-31T17:12:09.202Z,3.85
2023-08-31T17:14:36.212Z,4.45
2023-08-31T17:17:03.362Z,4.57
2023-08-31T17:19:30.346Z,4.43
2023-08-31T17:21:57.410Z,4.07
2023-08-31T17:24:24.365Z,4.88
2023-08-31T17:26:52.850Z,4.72
2023-08-31T17:29:19.902Z,4.25
2023-08-31T17:31:47.164Z,4.10
2023-08-31T17:34:14.164Z,4.90
2023-08-31T17:36:41.095Z,4.53
2023-08-31T17:39:08.045Z,5.03
2023-08-31T17:41:35.066Z,7.45
2023-08-31T17:44:03.635Z,4.85
2023-08-31T17:46:30.861Z,4.68
2023-08-31T17:48:58.084Z,5.20
2023-08-31T17:51:25.220Z,5.60
2023-08-31T17:53:52.272Z,5.68
2023-08-31T17:56:19.561Z,5.78
2023-08-31T17:58:46.580Z,4.93
2023-08-31T18:01:16.468Z,5.35
2023-08-31T18:03:43.699Z,6.20
2023-08-31T18:06:10.869Z,5.80
2023-08-31T18:08:38.004Z,6.22
2023-08-31T18:11:04.983Z,6.18
2023-08-31T18:13:31.971Z,5.63
2023-08-31T18:15:59.044Z,6.05
2023-08-31T18:18:27.342Z,6.13
2023-08-31T18:20:57.495Z,6.10
2023-08-31T18:23:24.439Z,6.43
2023-08-31T18:25:51.405Z,5.85
2023-08-31T18:28:18.622Z,7.20
2023-08-31T18:30:53.386Z,7.50
2023-08-31T18:33:20.727Z,7.10
2023-08-31T18:35:51.856Z,6.95
2023-08-31T18:38:20.121Z,6.38
2023-08-31T18:40:50.997Z,6.18
2023-08-31T18:43:18.762Z,6.53
2023-08-31T18:45:46.207Z,7.22
2023-08-31T18:48:15.214Z,6.70
2023-08-31T18:50:43.485Z,7.00
2023-08-31T18:53:11.943Z,6.35
2023-08-31T18:55:39.181Z,6.22
2023-08-31T18:58:06.540Z,6.13
2023-08-31T19:00:33.653Z,7.32
2023-08-31T19:03:00.777Z,6.15
2023-08-31T19:05:28.047Z,6.05
2023-08-31T19:07:55.399Z,5.07
2023-08-31T19:10:23.949Z,5.22
2023-08-31T19:12:51.140Z,5.55
2023-08-31T19:15:18.704Z,5.18
2023-08-31T19:17:46.166Z,5.25
2023-08-31T19:20:13.857Z,5.15
2023-08-31T19:22:40.807Z,5.40
2023-08-31T19:25:08.691Z,5.50
2023-08-31T19:27:37.036Z,5.13
2023-08-31T19:30:05.174Z,5.40
2023-08-31T19:32:32.207Z,4.88
2023-08-31T19:34:59.209Z,4.97
2023-08-31T19:37:34.715Z,5.43
2023-08-31T19:40:02.065Z,5.13
2023-08-31T19:42:29.083Z,5.80
2023-08-31T19:44:57.895Z,5.95
2023-08-31T19:47:24.932Z,5.47
2023-08-31T19:49:51.879Z,5.50
2023-08-31T19:52:19.035Z,5.05
2023-08-31T19:54:46.096Z,5.25
2023-08-31T19:57:13.103Z,5.18
2023-08-31T19:59:40.109Z,4.90
2023-08-31T20:02:10.122Z,4.88
2023-08-31T20:04:39.268Z,5.20
2023-08-31T20:07:06.462Z,4.90
2023-08-31T20:09:33.537Z,4.80
2023-08-31T20:12:00.645Z,5.35
2023-08-31T20:14:27.579Z,5.32
2023-08-31T20:16:54.605Z,5.82
2023-08-31T20:19:22.979Z,5.45
2023-08-31T20:21:50.466Z,6.30
2023-08-31T20:24:17.428Z,5.68
2023-08-31T20:26:44.540Z,5.75
2023-08-31T20:29:11.485Z,5.65
2023-08-31T20:31:38.865Z,5.53
2023-08-31T20:34:05.909Z,6.10
2023-08-31T20:36:34.331Z,5.82
2023-08-31T20:39:04.372Z,5.72
2023-08-31T20:41:31.413Z,5.65
2023-08-31T20:44:01.337Z,6.18
2023-08-31T20:46:28.279Z,6.38
2023-08-31T20:48:55.314Z,5.70
2023-08-31T20:51:22.285Z,5.55
2023-08-31T20:53:50.656Z,5.88
2023-08-31T20:56:19.583Z,5.60
2023-08-31T20:58:46.820Z,6.10
2023-08-31T21:01:14.223Z,6.40
2023-08-31T21:03:42.421Z,5.60
2023-08-31T21:06:10.484Z,5.53
2023-08-31T21:08:38.101Z,5.80
2023-08-31T21:11:06.545Z,5.82
2023-08-31T21:13:33.647Z,5.47
2023-08-31T21:16:00.640Z,5.50
2023-08-31T21:18:27.620Z,5.70
2023-08-31T21:20:54.596Z,5.05
2023-08-31T21:23:21.831Z,4.82
2023-08-31T21:25:48.819Z,5.47
2023-08-31T21:28:17.150Z,5.13
2023-08-31T21:30:44.368Z,5.13
2023-08-31T21:33:11.457Z,4.82
2023-08-31T21:35:41.372Z,4.72
2023-08-31T21:38:09.363Z,4.88
2023-08-31T21:40:36.651Z,5.45
2023-08-31T21:43:04.908Z,5.43
2023-08-31T21:45:33.783Z,5.47
2023-08-31T21:48:01.051Z,5.05
2023-08-31T21:50:29.515Z,5.20
2023-08-31T21:52:56.524Z,5.32
2023-08-31T21:55:23.573Z,5.13
2023-08-31T21:57:50.639Z,4.72
2023-08-31T22:00:18.367Z,4.70
2023-08-31T22:02:48.537Z,4.70
2023-08-31T22:05:15.938Z,4.82
2023-08-31T22:07:43.222Z,4.07
2023-08-31T22:10:12.636Z,4.35
2023-08-31T22:12:40.355Z,4.20
2023-08-31T22:15:14.575Z,3.50
2023-08-31T22:17:44.953Z,4.10
2023-08-31T22:20:14.442Z,4.18
2023-08-31T22:22:41.516Z,3.75
2023-08-31T22:25:09.445Z,3.55
2023-08-31T22:27:36.806Z,3.60
2023-08-31T22:30:04.514Z,3.60
2023-08-31T22:32:31.859Z,3.42
2023-08-31T22:34:59.605Z,3.15
2023-08-31T22:37:27.932Z,3.20
2023-08-31T22:39:54.983Z,3.33
2023-08-31T22:42:21.939Z,3.22
2023-08-31T22:44:49.056Z,3.47
2023-08-31T22:47:16.000Z,3.05
2023-08-31T22:49:43.096Z,3.22
2023-08-31T22:52:10.867Z,3.67
2023-08-31T22:54:39.435Z,2.72
2023-08-31T22:57:06.765Z,2.92
2023-08-31T22:59:33.965Z,3.25
2023-08-31T23:02:01.176Z,3.10
2023-08-31T23:04:28.265Z,3.10
2023-08-31T23:06:55.334Z,3.47
2023-08-31T23:09:22.386Z,2.88
2023-08-31T23:11:51.843Z,2.78
2023-08-31T23:14:19.036Z,2.83
2023-08-31T23:16:46.394Z,3.20
2023-08-31T23:19:13.537Z,3.20
2023-08-31T23:21:43.096Z,2.90
2023-08-31T23:24:10.877Z,2.72
2023-08-31T23:26:37.949Z,2.45
2023-08-31T23:29:06.372Z,2.30
2023-08-31T23:31:33.630Z,2.80
2023-08-31T23:34:00.704Z,2.90
2023-08-31T23:36:28.339Z,2.80
2023-08-31T23:38:55.374Z,2.78
2023-08-31T23:41:22.378Z,3.05
2023-08-31T23:43:49.674Z,2.97
2023-08-31T23:46:18.158Z,2.92
2023-08-31T23:48:45.215Z,3.15
2023-08-31T23:51:12.194Z,3.20
2023-08-31T23:53:39.166Z,2.92
2023-08-31T23:56:06.718Z,3.50
2023-08-31T23:58:34.323Z,3.67
